sensor_id;sensor_type;location;lat;lon;timestamp;temperature;humidity
77803;DHT22;66993;48.256;16.422;2023-06-14T00:00:16;13.8;74.0
77803;DHT22;66993;48.256;16.422;2023-06-14T00:05:16;13.8;74.0
77803;DHT22;66993;48.256;16.422;2023-06-14T00:10:16;13.8;74.0
77803;DHT22;66993;48.256;16.422;2023-06-14T00:15:16;13.7;74.0
77803;DHT22;66993;48.256;16.422;2023-06-14T00:20:16;13.5;74.0
77803;DHT22;66993;48.256;16.422;2023-06-14T00:25:16;13.3;74.0
77803;DHT22;66993;48.256;16.422;2023-06-14T00:30:16;13.3;74.0
77803;DHT22;66993;48.256;16.422;2023-06-14T00:35:16;13.3;75.0
77803;DHT22;66993;48.256;16.422;2023-06-14T00:40:16;13.1;75.0
77803;DHT22;66993;48.256;16.422;2023-06-14T00:45:16;12.9;75.0
77803;DHT22;66993;48.256;16.422;2023-06-14T00:50:16;12.4;75.0
77803;DHT22;66993;48.256;16.422;2023-06-14T00:55:16;12.1;75.0
77803;DHT22;66993;48.256;16.422;2023-06-14T01:00:16;12.1;75.0
77803;DHT22;66993;48.256;16.422;2023-06-14T01:05:16;12.6;76.0
77803;DHT22;66993;48.256;16.422;2023-06-14T01:10:20;12.4;76.0
77803;DHT22;66993;48.256;16.422;2023-06-14T01:15:16;12.2;76.0
77803;DHT22;66993;48.256;16.422;2023-06-14T01:20:16;12.4;77.0
77803;DHT22;66993;48.256;16.422;2023-06-14T01:25:16;12.6;77.0
77803;DHT22;66993;48.256;16.422;2023-06-14T01:30:17;12.6;77.0
77803;DHT22;66993;48.256;16.422;2023-06-14T01:35:16;12.7;77.0
77803;DHT22;66993;48.256;16.422;2023-06-14T01:40:16;12.6;77.0
77803;DHT22;66993;48.256;16.422;2023-06-14T01:45:16;12.4;77.0
77803;DHT22;66993;48.256;16.422;2023-06-14T01:50:16;12.3;78.0
77803;DHT22;66993;48.256;16.422;2023-06-14T01:55:16;12.6;78.0
77803;DHT22;66993;48.256;16.422;2023-06-14T02:00:16;12.5;78.0
77803;DHT22;66993;48.256;16.422;2023-06-14T02:05:16;12.5;78.0
77803;DHT22;66993;48.256;16.422;2023-06-14T02:10:16;12.7;78.0
77803;DHT22;66993;48.256;16.422;2023-06-14T02:15:16;12.5;78.0
77803;DHT22;66993;48.256;16.422;2023-06-14T02:20:16;12.5;78.0
77803;DHT22;66993;48.256;16.422;2023-06-14T02:25:16;12.7;78.0
77803;DHT22;66993;48.256;16.422;2023-06-14T02:30:16;12.5;78.0
77803;DHT22;66993;48.256;16.422;2023-06-14T02:35:16;12.5;78.0
77803;DHT22;66993;48.256;16.422;2023-06-14T02:40:16;12.5;78.0
77803;DHT22;66993;48.256;16.422;2023-06-14T02:45:16;12.6;78.0
77803;DHT22;66993;48.256;16.422;2023-06-14T02:50:16;12.6;78.0
77803;DHT22;66993;48.256;16.422;2023-06-14T02:55:16;12.5;78.0
77803;DHT22;66993;48.256;16.422;2023-06-14T03:00:16;12.4;78.0
77803;DHT22;66993;48.256;16.422;2023-06-14T03:05:16;12.2;78.0
77803;DHT22;66993;48.256;16.422;2023-06-14T03:10:16;12.0;78.0
77803;DHT22;66993;48.256;16.422;2023-06-14T03:15:16;11.8;79.0
77803;DHT22;66993;48.256;16.422;2023-06-14T03:20:16;11.7;79.0
77803;DHT22;66993;48.256;16.422;2023-06-14T03:25:16;11.6;79.0
77803;DHT22;66993;48.256;16.422;2023-06-14T03:30:16;11.9;79.0
77803;DHT22;66993;48.256;16.422;2023-06-14T03:35:16;12.0;80.0
77803;DHT22;66993;48.256;16.422;2023-06-14T03:40:18;11.9;80.0
77803;DHT22;66993;48.256;16.422;2023-06-14T03:45:16;12.2;80.0
77803;DHT22;66993;48.256;16.422;2023-06-14T03:50:16;12.7;80.0
77803;DHT22;66993;48.256;16.422;2023-06-14T03:55:16;12.6;80.0
77803;DHT22;66993;48.256;16.422;2023-06-14T04:00:16;12.9;80.0
77803;DHT22;66993;48.256;16.422;2023-06-14T04:05:16;13.2;80.0
77803;DHT22;66993;48.256;16.422;2023-06-14T04:10:16;13.4;80.0
77803;DHT22;66993;48.256;16.422;2023-06-14T04:15:16;13.5;79.0
77803;DHT22;66993;48.256;16.422;2023-06-14T04:20:16;13.5;79.0
77803;DHT22;66993;48.256;16.422;2023-06-14T04:25:16;13.9;79.0
77803;DHT22;66993;48.256;16.422;2023-06-14T04:30:16;14.3;78.0
77803;DHT22;66993;48.256;16.422;2023-06-14T04:35:16;14.1;76.0
77803;DHT22;66993;48.256;16.422;2023-06-14T04:40:17;14.5;76.0
77803;DHT22;66993;48.256;16.422;2023-06-14T04:45:16;14.5;75.0
77803;DHT22;66993;48.256;16.422;2023-06-14T04:50:16;14.5;75.0
77803;DHT22;66993;48.256;16.422;2023-06-14T04:55:16;14.4;75.0
77803;DHT22;66993;48.256;16.422;2023-06-14T05:00:16;14.6;73.0
77803;DHT22;66993;48.256;16.422;2023-06-14T05:05:16;14.8;73.0
77803;DHT22;66993;48.256;16.422;2023-06-14T05:10:16;14.6;72.0
77803;DHT22;66993;48.256;16.422;2023-06-14T05:15:16;14.9;72.0
77803;DHT22;66993;48.256;16.422;2023-06-14T05:20:16;14.7;72.0
77803;DHT22;66993;48.256;16.422;2023-06-14T05:25:16;14.7;72.0
77803;DHT22;66993;48.256;16.422;2023-06-14T05:30:16;15.4;72.0
77803;DHT22;66993;48.256;16.422;2023-06-14T05:35:16;15.3;72.0
77803;DHT22;66993;48.256;16.422;2023-06-14T05:40:16;15.8;70.0
77803;DHT22;66993;48.256;16.422;2023-06-14T05:45:16;16.3;70.0
77803;DHT22;66993;48.256;16.422;2023-06-14T05:50:16;16.5;70.0
77803;DHT22;66993;48.256;16.422;2023-06-14T05:55:16;16.0;69.0
77803;DHT22;66993;48.256;16.422;2023-06-14T06:00:16;16.3;69.0
77803;DHT22;66993;48.256;16.422;2023-06-14T06:05:16;16.8;69.0
77803;DHT22;66993;48.256;16.422;2023-06-14T06:10:16;16.1;67.0
77803;DHT22;66993;48.256;16.422;2023-06-14T06:15:16;16.2;67.0
77803;DHT22;66993;48.256;16.422;2023-06-14T06:20:16;17.2;65.0
77803;DHT22;66993;48.256;16.422;2023-06-14T06:25:16;16.2;64.0
77803;DHT22;66993;48.256;16.422;2023-06-14T06:30:16;16.4;65.0
77803;DHT22;66993;48.256;16.422;2023-06-14T06:35:16;16.8;63.0
77803;DHT22;66993;48.256;16.422;2023-06-14T06:40:16;17.2;62.0
77803;DHT22;66993;48.256;16.422;2023-06-14T06:45:16;17.3;61.0
77803;DHT22;66993;48.256;16.422;2023-06-14T06:50:17;17.8;60.0
77803;DHT22;66993;48.256;16.422;2023-06-14T06:55:16;17.3;55.0
77803;DHT22;66993;48.256;16.422;2023-06-14T07:00:16;17.2;55.0
77803;DHT22;66993;48.256;16.422;2023-06-14T07:05:16;17.7;54.0
77803;DHT22;66993;48.256;16.422;2023-06-14T07:10:16;18.7;53.0
77803;DHT22;66993;48.256;16.422;2023-06-14T07:15:16;18.2;51.0
77803;DHT22;66993;48.256;16.422;2023-06-14T07:20:16;18.4;52.0
77803;DHT22;66993;48.256;16.422;2023-06-14T07:25:16;18.9;50.0
77803;DHT22;66993;48.256;16.422;2023-06-14T07:30:16;19.1;50.0
77803;DHT22;66993;48.256;16.422;2023-06-14T07:35:16;19.6;49.0
77803;DHT22;66993;48.256;16.422;2023-06-14T07:40:16;18.6;50.0
77803;DHT22;66993;48.256;16.422;2023-06-14T07:45:16;19.1;48.0
77803;DHT22;66993;48.256;16.422;2023-06-14T07:50:16;19.2;48.0
77803;DHT22;66993;48.256;16.422;2023-06-14T07:55:16;18.7;48.0
77803;DHT22;66993;48.256;16.422;2023-06-14T08:00:16;18.8;45.0
77803;DHT22;66993;48.256;16.422;2023-06-14T08:05:16;21.3;47.0
77803;DHT22;66993;48.256;16.422;2023-06-14T08:10:16;20.8;45.0
77803;DHT22;66993;48.256;16.422;2023-06-14T08:15:16;21.8;45.0
77803;DHT22;66993;48.256;16.422;2023-06-14T08:20:16;21.3;44.0
77803;DHT22;66993;48.256;16.422;2023-06-14T08:25:16;20.8;43.0
77803;DHT22;66993;48.256;16.422;2023-06-14T08:30:16;20.3;42.0
77803;DHT22;66993;48.256;16.422;2023-06-14T08:35:16;20.5;41.0
77803;DHT22;66993;48.256;16.422;2023-06-14T08:40:18;21.5;41.0
77803;DHT22;66993;48.256;16.422;2023-06-14T08:45:16;21.5;42.0
77803;DHT22;66993;48.256;16.422;2023-06-14T08:50:16;21.4;41.0
77803;DHT22;66993;48.256;16.422;2023-06-14T08:55:16;20.9;40.0
77803;DHT22;66993;48.256;16.422;2023-06-14T09:00:16;21.4;40.0
77803;DHT22;66993;48.256;16.422;2023-06-14T09:05:16;22.4;39.0
77803;DHT22;66993;48.256;16.422;2023-06-14T09:10:16;21.4;40.0
77803;DHT22;66993;48.256;16.422;2023-06-14T09:15:16;21.4;37.0
77803;DHT22;66993;48.256;16.422;2023-06-14T09:20:16;20.9;36.0
77803;DHT22;66993;48.256;16.422;2023-06-14T09:25:16;22.4;37.0
77803;DHT22;66993;48.256;16.422;2023-06-14T09:30:16;22.9;35.0
77803;DHT22;66993;48.256;16.422;2023-06-14T09:35:16;24.4;37.0
77803;DHT22;66993;48.256;16.422;2023-06-14T09:40:19;23.9;36.0
77803;DHT22;66993;48.256;16.422;2023-06-14T09:45:16;22.9;35.0
77803;DHT22;66993;48.256;16.422;2023-06-14T09:50:16;22.4;34.0
77803;DHT22;66993;48.256;16.422;2023-06-14T09:55:16;21.9;37.0
77803;DHT22;66993;48.256;16.422;2023-06-14T10:00:16;20.9;39.0
77803;DHT22;66993;48.256;16.422;2023-06-14T10:05:16;23.9;40.0
77803;DHT22;66993;48.256;16.422;2023-06-14T10:10:16;24.9;37.0
77803;DHT22;66993;48.256;16.422;2023-06-14T10:15:32;23.9;36.0
77803;DHT22;66993;48.256;16.422;2023-06-14T10:20:21;21.4;38.0
77803;DHT22;66993;48.256;16.422;2023-06-14T10:25:26;22.9;39.0
77803;DHT22;66993;48.256;16.422;2023-06-14T10:30:16;22.6;39.0
77803;DHT22;66993;48.256;16.422;2023-06-14T10:35:16;23.6;39.0
77803;DHT22;66993;48.256;16.422;2023-06-14T10:40:29;22.9;39.0
77803;DHT22;66993;48.256;16.422;2023-06-14T10:45:16;22.9;38.0
77803;DHT22;66993;48.256;16.422;2023-06-14T10:50:16;25.4;35.0
77803;DHT22;66993;48.256;16.422;2023-06-14T10:55:16;25.9;35.0
77803;DHT22;66993;48.256;16.422;2023-06-14T11:00:17;25.9;35.0
77803;DHT22;66993;48.256;16.422;2023-06-14T11:05:17;25.4;31.0
77803;DHT22;66993;48.256;16.422;2023-06-14T11:10:20;25.9;32.0
77803;DHT22;66993;48.256;16.422;2023-06-14T11:15:16;25.4;33.0
77803;DHT22;66993;48.256;16.422;2023-06-14T11:20:16;24.9;37.0
77803;DHT22;66993;48.256;16.422;2023-06-14T11:25:16;25.9;38.0
77803;DHT22;66993;48.256;16.422;2023-06-14T11:30:16;26.0;37.0
77803;DHT22;66993;48.256;16.422;2023-06-14T11:35:16;24.0;38.0
77803;DHT22;66993;48.256;16.422;2023-06-14T11:40:16;24.0;38.0
77803;DHT22;66993;48.256;16.422;2023-06-14T11:45:16;24.0;39.0
77803;DHT22;66993;48.256;16.422;2023-06-14T11:50:16;23.5;39.0
77803;DHT22;66993;48.256;16.422;2023-06-14T11:55:16;22.5;41.0
77803;DHT22;66993;48.256;16.422;2023-06-14T12:00:16;23.5;40.0
77803;DHT22;66993;48.256;16.422;2023-06-14T12:05:16;26.0;41.0
77803;DHT22;66993;48.256;16.422;2023-06-14T12:10:16;24.0;39.0
77803;DHT22;66993;48.256;16.422;2023-06-14T12:15:16;24.5;39.0
77803;DHT22;66993;48.256;16.422;2023-06-14T12:20:16;26.5;39.0
77803;DHT22;66993;48.256;16.422;2023-06-14T12:25:25;26.0;39.0
77803;DHT22;66993;48.256;16.422;2023-06-14T12:30:16;26.0;39.0
77803;DHT22;66993;48.256;16.422;2023-06-14T12:35:16;27.5;38.0
77803;DHT22;66993;48.256;16.422;2023-06-14T12:40:16;27.0;36.0
77803;DHT22;66993;48.256;16.422;2023-06-14T12:45:16;28.5;37.0
77803;DHT22;66993;48.256;16.422;2023-06-14T12:50:16;28.5;39.0
77803;DHT22;66993;48.256;16.422;2023-06-14T12:55:16;29.0;36.0
77803;DHT22;66993;48.256;16.422;2023-06-14T13:00:16;29.5;36.0
77803;DHT22;66993;48.256;16.422;2023-06-14T13:05:16;26.9;36.0
77803;DHT22;66993;48.256;16.422;2023-06-14T13:10:16;26.9;36.0
77803;DHT22;66993;48.256;16.422;2023-06-14T13:15:16;26.9;37.0
77803;DHT22;66993;48.256;16.422;2023-06-14T13:20:16;26.4;36.0
77803;DHT22;66993;48.256;16.422;2023-06-14T13:25:16;24.9;36.0
77803;DHT22;66993;48.256;16.422;2023-06-14T13:30:16;26.4;37.0
77803;DHT22;66993;48.256;16.422;2023-06-14T13:35:16;27.9;37.0
77803;DHT22;66993;48.256;16.422;2023-06-14T13:40:16;29.4;36.0
77803;DHT22;66993;48.256;16.422;2023-06-14T13:45:16;25.9;36.0
77803;DHT22;66993;48.256;16.422;2023-06-14T13:50:16;25.4;37.0
77803;DHT22;66993;48.256;16.422;2023-06-14T13:55:16;24.9;36.0
77803;DHT22;66993;48.256;16.422;2023-06-14T14:00:17;24.9;37.0
77803;DHT22;66993;48.256;16.422;2023-06-14T14:05:16;24.9;38.0
77803;DHT22;66993;48.256;16.422;2023-06-14T14:10:16;25.1;38.0
77803;DHT22;66993;48.256;16.422;2023-06-14T14:15:16;24.1;38.0
77803;DHT22;66993;48.256;16.422;2023-06-14T14:20:16;25.1;38.0
77803;DHT22;66993;48.256;16.422;2023-06-14T14:25:16;26.6;38.0
77803;DHT22;66993;48.256;16.422;2023-06-14T14:30:16;27.6;37.0
77803;DHT22;66993;48.256;16.422;2023-06-14T14:35:16;26.1;37.0
77803;DHT22;66993;48.256;16.422;2023-06-14T14:40:16;28.1;37.0
77803;DHT22;66993;48.256;16.422;2023-06-14T14:45:16;28.6;37.0
77803;DHT22;66993;48.256;16.422;2023-06-14T14:50:16;26.1;38.0
77803;DHT22;66993;48.256;16.422;2023-06-14T14:55:16;26.1;37.0
77803;DHT22;66993;48.256;16.422;2023-06-14T15:00:16;26.1;38.0
77803;DHT22;66993;48.256;16.422;2023-06-14T15:05:16;25.6;38.0
77803;DHT22;66993;48.256;16.422;2023-06-14T15:10:16;25.1;38.0
77803;DHT22;66993;48.256;16.422;2023-06-14T15:15:16;25.1;38.0
77803;DHT22;66993;48.256;16.422;2023-06-14T15:20:16;24.6;38.0
77803;DHT22;66993;48.256;16.422;2023-06-14T15:25:16;23.6;39.0
77803;DHT22;66993;48.256;16.422;2023-06-14T15:30:16;23.7;39.0
77803;DHT22;66993;48.256;16.422;2023-06-14T15:35:16;24.3;39.0
77803;DHT22;66993;48.256;16.422;2023-06-14T15:40:16;25.8;38.0
77803;DHT22;66993;48.256;16.422;2023-06-14T15:45:16;24.8;40.0
77803;DHT22;66993;48.256;16.422;2023-06-14T15:50:16;24.8;39.0
77803;DHT22;66993;48.256;16.422;2023-06-14T15:55:16;23.8;39.0
77803;DHT22;66993;48.256;16.422;2023-06-14T16:00:16;23.7;40.0
77803;DHT22;66993;48.256;16.422;2023-06-14T16:05:16;23.2;40.0
77803;DHT22;66993;48.256;16.422;2023-06-14T16:10:16;22.2;43.0
77803;DHT22;66993;48.256;16.422;2023-06-14T16:15:16;22.1;44.0
77803;DHT22;66993;48.256;16.422;2023-06-14T16:20:16;21.7;46.0
77803;DHT22;66993;48.256;16.422;2023-06-14T16:25:16;22.2;46.0
77803;DHT22;66993;48.256;16.422;2023-06-14T16:30:16;22.0;47.0
77803;DHT22;66993;48.256;16.422;2023-06-14T16:35:16;22.0;47.0
77803;DHT22;66993;48.256;16.422;2023-06-14T16:40:16;21.6;47.0
77803;DHT22;66993;48.256;16.422;2023-06-14T16:45:16;22.1;47.0
77803;DHT22;66993;48.256;16.422;2023-06-14T16:50:16;21.9;47.0
77803;DHT22;66993;48.256;16.422;2023-06-14T16:55:16;21.8;47.0
77803;DHT22;66993;48.256;16.422;2023-06-14T17:00:17;21.8;47.0
77803;DHT22;66993;48.256;16.422;2023-06-14T17:05:16;21.7;47.0
77803;DHT22;66993;48.256;16.422;2023-06-14T17:10:16;21.8;48.0
77803;DHT22;66993;48.256;16.422;2023-06-14T17:15:16;21.5;48.0
77803;DHT22;66993;48.256;16.422;2023-06-14T17:20:16;22.0;48.0
77803;DHT22;66993;48.256;16.422;2023-06-14T17:25:16;21.8;48.0
77803;DHT22;66993;48.256;16.422;2023-06-14T17:30:16;21.5;50.0
77803;DHT22;66993;48.256;16.422;2023-06-14T17:35:16;21.4;50.0
77803;DHT22;66993;48.256;16.422;2023-06-14T17:40:16;21.5;50.0
77803;DHT22;66993;48.256;16.422;2023-06-14T17:45:16;21.5;50.0
77803;DHT22;66993;48.256;16.422;2023-06-14T17:50:16;20.9;51.0
77803;DHT22;66993;48.256;16.422;2023-06-14T17:55:16;21.2;52.0
77803;DHT22;66993;48.256;16.422;2023-06-14T18:00:17;21.4;52.0
77803;DHT22;66993;48.256;16.422;2023-06-14T18:05:16;20.9;52.0
77803;DHT22;66993;48.256;16.422;2023-06-14T18:10:16;20.6;52.0
77803;DHT22;66993;48.256;16.422;2023-06-14T18:15:16;20.5;52.0
77803;DHT22;66993;48.256;16.422;2023-06-14T18:20:16;20.6;52.0
77803;DHT22;66993;48.256;16.422;2023-06-14T18:25:16;20.1;53.0
77803;DHT22;66993;48.256;16.422;2023-06-14T18:30:16;20.1;54.0
77803;DHT22;66993;48.256;16.422;2023-06-14T18:35:16;19.8;55.0
77803;DHT22;66993;48.256;16.422;2023-06-14T18:40:16;19.4;56.0
77803;DHT22;66993;48.256;16.422;2023-06-14T18:45:16;19.1;57.0
77803;DHT22;66993;48.256;16.422;2023-06-14T18:50:16;18.9;58.0
77803;DHT22;66993;48.256;16.422;2023-06-14T18:55:17;18.7;59.0
77803;DHT22;66993;48.256;16.422;2023-06-14T19:00:16;18.5;62.0
77803;DHT22;66993;48.256;16.422;2023-06-14T19:05:16;18.2;63.0
77803;DHT22;66993;48.256;16.422;2023-06-14T19:10:16;17.7;64.0
77803;DHT22;66993;48.256;16.422;2023-06-14T19:15:16;17.2;66.0
77803;DHT22;66993;48.256;16.422;2023-06-14T19:20:16;17.0;67.0
77803;DHT22;66993;48.256;16.422;2023-06-14T19:25:16;16.8;68.0
77803;DHT22;66993;48.256;16.422;2023-06-14T19:30:17;16.8;69.0
77803;DHT22;66993;48.256;16.422;2023-06-14T19:35:16;16.6;70.0
77803;DHT22;66993;48.256;16.422;2023-06-14T19:40:16;16.6;72.0
77803;DHT22;66993;48.256;16.422;2023-06-14T19:45:16;16.4;72.0
77803;DHT22;66993;48.256;16.422;2023-06-14T19:50:16;16.2;73.0
77803;DHT22;66993;48.256;16.422;2023-06-14T19:55:16;16.1;73.0
77803;DHT22;66993;48.256;16.422;2023-06-14T20:00:16;15.9;74.0
77803;DHT22;66993;48.256;16.422;2023-06-14T20:05:16;15.7;74.0
77803;DHT22;66993;48.256;16.422;2023-06-14T20:10:16;15.6;74.0
77803;DHT22;66993;48.256;16.422;2023-06-14T20:15:16;15.4;75.0
77803;DHT22;66993;48.256;16.422;2023-06-14T20:20:16;15.2;75.0
77803;DHT22;66993;48.256;16.422;2023-06-14T20:25:16;15.0;75.0
77803;DHT22;66993;48.256;16.422;2023-06-14T20:30:16;15.2;75.0
77803;DHT22;66993;48.256;16.422;2023-06-14T20:35:16;15.7;75.0
77803;DHT22;66993;48.256;16.422;2023-06-14T20:40:23;15.5;76.0
77803;DHT22;66993;48.256;16.422;2023-06-14T20:45:21;15.5;76.0
77803;DHT22;66993;48.256;16.422;2023-06-14T20:50:24;15.6;76.0
77803;DHT22;66993;48.256;16.422;2023-06-14T20:55:16;15.5;76.0
77803;DHT22;66993;48.256;16.422;2023-06-14T21:00:21;15.2;76.0
77803;DHT22;66993;48.256;16.422;2023-06-14T21:05:16;14.9;77.0
77803;DHT22;66993;48.256;16.422;2023-06-14T21:10:22;14.4;78.0
77803;DHT22;66993;48.256;16.422;2023-06-14T21:15:16;14.7;78.0
77803;DHT22;66993;48.256;16.422;2023-06-14T21:20:16;14.8;78.0
77803;DHT22;66993;48.256;16.422;2023-06-14T21:25:17;14.6;79.0
77803;DHT22;66993;48.256;16.422;2023-06-14T21:30:16;14.7;79.0
77803;DHT22;66993;48.256;16.422;2023-06-14T21:35:16;14.2;80.0
77803;DHT22;66993;48.256;16.422;2023-06-14T21:40:16;13.9;80.0
77803;DHT22;66993;48.256;16.422;2023-06-14T21:45:16;14.4;80.0
77803;DHT22;66993;48.256;16.422;2023-06-14T21:50:16;14.1;80.0
77803;DHT22;66993;48.256;16.422;2023-06-14T21:55:16;13.9;80.0
77803;DHT22;66993;48.256;16.422;2023-06-14T22:00:17;14.0;81.0
77803;DHT22;66993;48.256;16.422;2023-06-14T22:05:16;13.7;81.0
77803;DHT22;66993;48.256;16.422;2023-06-14T22:10:16;14.2;81.0
77803;DHT22;66993;48.256;16.422;2023-06-14T22:15:16;14.0;81.0
77803;DHT22;66993;48.256;16.422;2023-06-14T22:20:16;14.0;81.0
77803;DHT22;66993;48.256;16.422;2023-06-14T22:25:16;14.0;81.0
77803;DHT22;66993;48.256;16.422;2023-06-14T22:30:16;13.9;81.0
77803;DHT22;66993;48.256;16.422;2023-06-14T22:35:16;13.9;81.0
77803;DHT22;66993;48.256;16.422;2023-06-14T22:40:16;13.7;80.0
77803;DHT22;66993;48.256;16.422;2023-06-14T22:45:16;13.7;79.0
77803;DHT22;66993;48.256;16.422;2023-06-14T22:50:16;13.7;79.0
77803;DHT22;66993;48.256;16.422;2023-06-14T22:55:16;13.6;79.0
77803;DHT22;66993;48.256;16.422;2023-06-14T23:00:16;13.7;79.0
77803;DHT22;66993;48.256;16.422;2023-06-14T23:05:16;13.6;79.0
77803;DHT22;66993;48.256;16.422;2023-06-14T23:10:16;13.6;79.0
77803;DHT22;66993;48.256;16.422;2023-06-14T23:15:16;13.5;79.0
77803;DHT22;66993;48.256;16.422;2023-06-14T23:20:16;13.5;80.0
77803;DHT22;66993;48.256;16.422;2023-06-14T23:25:16;13.5;80.0
77803;DHT22;66993;48.256;16.422;2023-06-14T23:30:16;13.4;80.0
77803;DHT22;66993;48.256;16.422;2023-06-14T23:35:16;13.2;80.0
77803;DHT22;66993;48.256;16.422;2023-06-14T23:40:16;13.2;80.0
77803;DHT22;66993;48.256;16.422;2023-06-14T23:45:16;13.0;80.0
77803;DHT22;66993;48.256;16.422;2023-06-14T23:50:16;13.2;80.0
77803;DHT22;66993;48.256;16.422;2023-06-14T23:55:16;13.2;81.0
